Zaliv Vostok — A8RM6 — position and weather

sailwx.info

Track history (hours):
 
Tides and Currents Weather Stations Pressure Air Temp Water Temp Dewpoint Dewpoint Depression Visibility Wind Speed Wind Dir Waves Ship Positions

Zaliv Vostok

Last reported at 2014-Oct-25 01:19 UTC. Time now 2014-Oct-25 22:05 UTC.
Position N 59°58' E 026°55'.

Length 243 m; draft 8.2 m.

Type: Tanker. MMSI: 636014127.

Date/timePositionNaut miles runAvg speedWind from/ knotsBaromVisibWave heightAir tempDewpointWater temp
2014-Oct-25 01:19N 59°58' E 026°55'8 9.9
2014-Oct-25 00:30N 59°59' E 026°39'5110.3
2014-Oct-24 19:33N 59°47' E 025°01'1010.2
2014-Oct-24 18:33N 59°45' E 024°41'1010.0
2014-Oct-24 17:33N 59°43' E 024°22'372 9.4
2014-Oct-23 02:05N 55°38' E 015°39'5 8.8
2014-Oct-23 01:33N 55°37' E 015°30'9 8.9
2014-Oct-23 00:33N 55°33' E 015°16'9 8.9
2014-Oct-22 23:33N 55°30' E 015°02'9 8.6
2014-Oct-22 22:33N 55°26' E 014°48'8 8.4
2014-Oct-22 21:33N 55°21' E 014°36'9 8.6
2014-Oct-22 20:33N 55°15' E 014°26'9 8.5
2014-Oct-22 19:33N 55°10' E 014°14'9 8.5
2014-Oct-22 18:33N 55°10' E 013°59'8 7.8
2014-Oct-22 17:31N 55°11' E 013°45'8 8.5
2014-Oct-22 16:32N 55°12' E 013°30'11 9.5
2014-Oct-22 15:22N 55°13' E 013°10'8 9.6
2014-Oct-22 14:32N 55°14' E 012°57'9 9.5
2014-Oct-22 13:33N 55°17' E 012°41'8 8.3
2014-Oct-22 12:33N 55°25' E 012°39'8 7.8
2014-Oct-22 11:33N 55°33' E 012°42'7 6.8
2014-Oct-22 10:33N 55°40' E 012°42'1212.2
2014-Oct-22 09:33N 55°52' E 012°41'1211.7
2014-Oct-22 08:34N 56°03' E 012°39'9 8.7
2014-Oct-22 07:33N 56°09' E 012°26'9 8.6
2014-Oct-22 06:33N 56°14' E 012°14'9 8.9
2014-Oct-22 05:33N 56°20' E 012°02'10 9.8
2014-Oct-22 04:32N 56°29' E 011°59'9 9.4
2014-Oct-22 03:32N 56°39' E 011°55'9 9.1
2014-Oct-22 02:33N 56°47' E 011°51'9 8.9
2014-Oct-22 01:34N 56°56' E 011°45'9 8.9
2014-Oct-22 00:34N 57°04' E 011°40'9 8.5
2014-Oct-21 23:33N 57°12' E 011°34'8 7.8
2014-Oct-21 22:34N 57°19' E 011°29'8 7.5
2014-Oct-21 21:34N 57°26' E 011°24'7 7.3
2014-Oct-21 20:33N 57°32' E 011°15'8 7.6
2014-Oct-21 19:34N 57°37' E 011°05'8 7.7
2014-Oct-21 18:33N 57°42' E 010°55'7 7.3
2014-Oct-21 17:34N 57°48' E 010°45'9 8.9
2014-Oct-21 16:33N 57°50' E 010°29'9 9.3
2014-Oct-21 15:33N 57°56' E 010°16'10 9.7
2014-Oct-21 14:34N 57°59' E 009°58'1110.8
2014-Oct-21 13:32N 57°58' E 009°37'1311.9
2014-Oct-21 12:28N 57°50' E 009°18'1415.1
2014-Oct-21 11:32N 57°40' E 008°60'1313.2
2014-Oct-21 10:33N 57°33' E 008°40'1311.1
2014-Oct-21 09:22N 57°25' E 008°20'193 9.6
2014-Oct-20 13:20N 54°35' E 005°38'7 8.9
2014-Oct-20 12:33N 54°29' E 005°33'9 8.8
2014-Oct-20 11:32N 54°21' E 005°25'9 9.4
2014-Oct-20 10:33N 54°14' E 005°14'10 9.6
2014-Oct-20 09:33N 54°08' E 005°01'10 9.7
2014-Oct-20 08:33N 54°02' E 004°49'163 9.6
2014-Oct-19 15:33N 51°42' E 002°31'1010.2
2014-Oct-19 14:33N 51°34' E 002°21'1110.6
2014-Oct-19 13:33N 51°25' E 002°11'1010.4
2014-Oct-19 12:33N 51°15' E 002°06'1111.4
2014-Oct-19 11:34N 51°09' E 001°52'1211.8
2014-Oct-19 10:33N 51°00' E 001°38'1212.2
2014-Oct-19 09:33N 50°51' E 001°26'9410.4
2014-Oct-19 00:33N 49°51' W 000°27'1010.2
2014-Oct-18 23:33N 49°42' W 000°19'1211.7
2014-Oct-18 22:33N 49°34' W 000°07'1110.8
2014-Oct-18 21:33N 49°28' E 000°08'0 0.1
2014-Oct-18 20:33N 49°28' E 000°08'0 0.0
2014-Oct-18 19:32N 49°28' E 000°08'0 0.0
2014-Oct-18 18:32N 49°28' E 000°08'0 0.0
2014-Oct-18 17:32N 49°28' E 000°08'0 0.0
2014-Oct-18 16:31N 49°28' E 000°08'0 0.0
2014-Oct-18 15:31N 49°28' E 000°08'0 0.0
2014-Oct-18 14:33N 49°28' E 000°08'0 0.0
2014-Oct-18 13:33N 49°28' E 000°08'0 0.0
2014-Oct-18 12:32N 49°28' E 000°08'0 0.0
2014-Oct-18 11:32N 49°28' E 000°08'0 0.0
2014-Oct-18 10:32N 49°28' E 000°08'0 0.0
2014-Oct-18 09:31N 49°28' E 000°08'0 0.0
2014-Oct-18 08:31N 49°28' E 000°08'0 0.0
2014-Oct-18 07:33N 49°28' E 000°08'0 0.0
2014-Oct-18 06:33N 49°28' E 000°08'0 0.0
2014-Oct-18 05:32N 49°28' E 000°08'0 0.0
2014-Oct-18 04:32N 49°28' E 000°08'0 0.0
2014-Oct-18 03:31N 49°28' E 000°08'0 0.0
2014-Oct-18 02:31N 49°28' E 000°08'0 0.0
2014-Oct-18 01:31N 49°28' E 000°08'0 0.0
2014-Oct-18 00:33N 49°28' E 000°08'0 0.0
2014-Oct-17 23:33N 49°28' E 000°08'0 0.0
2014-Oct-17 22:32N 49°28' E 000°08'0 0.0
2014-Oct-17 21:32N 49°28' E 000°08'0 0.0
2014-Oct-17 20:31N 49°28' E 000°08'0 0.0
2014-Oct-17 19:31N 49°28' E 000°08'0 0.0
2014-Oct-17 18:31N 49°28' E 000°08'0 0.0
2014-Oct-17 17:33N 49°28' E 000°08'0 0.0
2014-Oct-17 16:33N 49°28' E 000°08'0 0.0
2014-Oct-17 15:32N 49°28' E 000°08'0 0.0
2014-Oct-17 14:32N 49°28' E 000°08'0 0.0
2014-Oct-17 13:28N 49°28' E 000°08'0 0.0
2014-Oct-17 12:31N 49°28' E 000°08'0 0.0
2014-Oct-17 11:31N 49°28' E 000°08'0 0.0
2014-Oct-17 10:33N 49°28' E 000°08'0 0.0
2014-Oct-17 09:33N 49°28' E 000°08'0 0.0
2014-Oct-17 08:32N 49°28' E 000°08'0 0.0
2014-Oct-17 07:32N 49°28' E 000°08'0 0.0
2014-Oct-17 06:31N 49°28' E 000°08'0 0.0
2014-Oct-17 05:31N 49°28' E 000°08'0 0.0
2014-Oct-17 04:31N 49°28' E 000°08'0 0.0
2014-Oct-17 03:33N 49°28' E 000°08'0 0.0
2014-Oct-17 02:33N 49°28' E 000°08'0 0.0
2014-Oct-17 01:32N 49°28' E 000°08'0 0.0
2014-Oct-17 00:32N 49°28' E 000°08'0 0.0
2014-Oct-16 23:31N 49°28' E 000°08'0 0.0
2014-Oct-16 22:31N 49°28' E 000°08'0 0.0
2014-Oct-16 21:31N 49°28' E 000°08'0 0.0
2014-Oct-16 20:33N 49°28' E 000°08'0 0.0
2014-Oct-16 19:33N 49°28' E 000°08'0 0.0
2014-Oct-16 18:32N 49°28' E 000°08'0 0.0
2014-Oct-16 17:32N 49°28' E 000°08'0 0.0
2014-Oct-16 16:31N 49°28' E 000°08'0 0.0
2014-Oct-16 15:31N 49°28' E 000°08'0 0.0
2014-Oct-16 14:33N 49°28' E 000°08'0 0.0
2014-Oct-16 13:30N 49°28' E 000°08'0 0.0
2014-Oct-16 12:33N 49°28' E 000°08'0 0.0
2014-Oct-16 11:32N 49°28' E 000°08'0 0.0
2014-Oct-16 10:32N 49°28' E 000°08'0 0.0
2014-Oct-16 09:31N 49°28' E 000°08'0 0.0
2014-Oct-16 08:31N 49°28' E 000°08'0 0.0
2014-Oct-16 07:30N 49°28' E 000°08'0 0.0
2014-Oct-16 06:33N 49°28' E 000°08'0 0.0
2014-Oct-16 05:33N 49°28' E 000°08'0 0.0
2014-Oct-16 04:32N 49°28' E 000°08'0 0.0
2014-Oct-16 03:32N 49°28' E 000°08'0 0.0
2014-Oct-16 02:31N 49°28' E 000°08'0 0.0
2014-Oct-16 01:31N 49°28' E 000°08'0 0.0
2014-Oct-16 00:33N 49°28' E 000°08'0 0.0
2014-Oct-15 23:33N 49°28' E 000°08'0 0.0
2014-Oct-15 22:33N 49°28' E 000°08'0 0.0
2014-Oct-15 21:32N 49°28' E 000°08'0 0.0
2014-Oct-15 20:32N 49°28' E 000°08'0 0.0
2014-Oct-15 19:31N 49°28' E 000°08'0 0.0
2014-Oct-15 18:31N 49°28' E 000°08'0 0.0
2014-Oct-15 17:33N 49°28' E 000°08'0 0.0
2014-Oct-15 16:33N 49°28' E 000°08'0 0.0
2014-Oct-15 15:33N 49°28' E 000°08'0 0.0
2014-Oct-15 14:32N 49°28' E 000°08'0 0.0
2014-Oct-15 13:34N 49°28' E 000°08'4 4.0
2014-Oct-15 12:34N 49°30' E 000°02'1010.0
2014-Oct-15 11:33N 49°34' W 000°12'4 4.4
2014-Oct-15 10:34N 49°37' W 000°17'0 0.2
2014-Oct-15 09:29N 49°37' W 000°17'0 0.0
2014-Oct-15 08:22N 49°37' W 000°17'0 0.0
2014-Oct-15 07:31N 49°37' W 000°17'0 0.0
2014-Oct-15 06:31N 49°37' W 000°17'0 0.0
2014-Oct-15 05:27N 49°37' W 000°17'0 0.0
2014-Oct-15 04:33N 49°37' W 000°17'0 0.0
2014-Oct-15 03:32N 49°37' W 000°17'0 0.1
2014-Oct-15 02:32N 49°37' W 000°17'0 0.0
2014-Oct-15 01:32N 49°37' W 000°17'  
Track history (hours):
 
Tides and Currents Weather Stations Pressure Air Temp Water Temp Dewpoint Dewpoint Depression Visibility Wind Speed Wind Dir Waves Ship Positions

Zaliv Vostok

Last reported at 2014-Oct-25 01:19 UTC. Time now 2014-Oct-25 22:05 UTC.
Position N 59°58' E 026°55'.

Length 243 m; draft 8.2 m.

Type: Tanker. MMSI: 636014127.

Date/timePositionNaut miles runAvg speedWind from/ knotsBaromVisibWave heightAir tempDewpointWater temp
2014-Oct-25 01:19N 59°58' E 026°55'8 9.9
2014-Oct-25 00:30N 59°59' E 026°39'5110.3
2014-Oct-24 19:33N 59°47' E 025°01'1010.2
2014-Oct-24 18:33N 59°45' E 024°41'1010.0
2014-Oct-24 17:33N 59°43' E 024°22'372 9.4
2014-Oct-23 02:05N 55°38' E 015°39'5 8.8
2014-Oct-23 01:33N 55°37' E 015°30'9 8.9
2014-Oct-23 00:33N 55°33' E 015°16'9 8.9
2014-Oct-22 23:33N 55°30' E 015°02'9 8.6
2014-Oct-22 22:33N 55°26' E 014°48'8 8.4
2014-Oct-22 21:33N 55°21' E 014°36'9 8.6
2014-Oct-22 20:33N 55°15' E 014°26'9 8.5
2014-Oct-22 19:33N 55°10' E 014°14'9 8.5
2014-Oct-22 18:33N 55°10' E 013°59'8 7.8
2014-Oct-22 17:31N 55°11' E 013°45'8 8.5
2014-Oct-22 16:32N 55°12' E 013°30'11 9.5
2014-Oct-22 15:22N 55°13' E 013°10'8 9.6
2014-Oct-22 14:32N 55°14' E 012°57'9 9.5
2014-Oct-22 13:33N 55°17' E 012°41'8 8.3
2014-Oct-22 12:33N 55°25' E 012°39'8 7.8
2014-Oct-22 11:33N 55°33' E 012°42'7 6.8
2014-Oct-22 10:33N 55°40' E 012°42'1212.2
2014-Oct-22 09:33N 55°52' E 012°41'1211.7
2014-Oct-22 08:34N 56°03' E 012°39'9 8.7
2014-Oct-22 07:33N 56°09' E 012°26'9 8.6
2014-Oct-22 06:33N 56°14' E 012°14'9 8.9
2014-Oct-22 05:33N 56°20' E 012°02'10 9.8
2014-Oct-22 04:32N 56°29' E 011°59'9 9.4
2014-Oct-22 03:32N 56°39' E 011°55'9 9.1
2014-Oct-22 02:33N 56°47' E 011°51'9 8.9
2014-Oct-22 01:34N 56°56' E 011°45'9 8.9
2014-Oct-22 00:34N 57°04' E 011°40'9 8.5
2014-Oct-21 23:33N 57°12' E 011°34'8 7.8
2014-Oct-21 22:34N 57°19' E 011°29'8 7.5
2014-Oct-21 21:34N 57°26' E 011°24'7 7.3
2014-Oct-21 20:33N 57°32' E 011°15'8 7.6
2014-Oct-21 19:34N 57°37' E 011°05'8 7.7
2014-Oct-21 18:33N 57°42' E 010°55'7 7.3
2014-Oct-21 17:34N 57°48' E 010°45'9 8.9
2014-Oct-21 16:33N 57°50' E 010°29'9 9.3
2014-Oct-21 15:33N 57°56' E 010°16'10 9.7
2014-Oct-21 14:34N 57°59' E 009°58'1110.8
2014-Oct-21 13:32N 57°58' E 009°37'1311.9
2014-Oct-21 12:28N 57°50' E 009°18'1415.1
2014-Oct-21 11:32N 57°40' E 008°60'1313.2
2014-Oct-21 10:33N 57°33' E 008°40'1311.1
2014-Oct-21 09:22N 57°25' E 008°20'193 9.6
2014-Oct-20 13:20N 54°35' E 005°38'7 8.9
2014-Oct-20 12:33N 54°29' E 005°33'9 8.8
2014-Oct-20 11:32N 54°21' E 005°25'9 9.4
2014-Oct-20 10:33N 54°14' E 005°14'10 9.6
2014-Oct-20 09:33N 54°08' E 005°01'10 9.7
2014-Oct-20 08:33N 54°02' E 004°49'163 9.6
2014-Oct-19 15:33N 51°42' E 002°31'1010.2
2014-Oct-19 14:33N 51°34' E 002°21'1110.6
2014-Oct-19 13:33N 51°25' E 002°11'1010.4
2014-Oct-19 12:33N 51°15' E 002°06'1111.4
2014-Oct-19 11:34N 51°09' E 001°52'1211.8
2014-Oct-19 10:33N 51°00' E 001°38'1212.2
2014-Oct-19 09:33N 50°51' E 001°26'9410.4
2014-Oct-19 00:33N 49°51' W 000°27'1010.2
2014-Oct-18 23:33N 49°42' W 000°19'1211.7
2014-Oct-18 22:33N 49°34' W 000°07'1110.8
2014-Oct-18 21:33N 49°28' E 000°08'0 0.1
2014-Oct-18 20:33N 49°28' E 000°08'0 0.0
2014-Oct-18 19:32N 49°28' E 000°08'0 0.0
2014-Oct-18 18:32N 49°28' E 000°08'0 0.0
2014-Oct-18 17:32N 49°28' E 000°08'0 0.0
2014-Oct-18 16:31N 49°28' E 000°08'0 0.0
2014-Oct-18 15:31N 49°28' E 000°08'0 0.0
2014-Oct-18 14:33N 49°28' E 000°08'0 0.0
2014-Oct-18 13:33N 49°28' E 000°08'0 0.0
2014-Oct-18 12:32N 49°28' E 000°08'0 0.0
2014-Oct-18 11:32N 49°28' E 000°08'0 0.0
2014-Oct-18 10:32N 49°28' E 000°08'0 0.0
2014-Oct-18 09:31N 49°28' E 000°08'0 0.0
2014-Oct-18 08:31N 49°28' E 000°08'0 0.0
2014-Oct-18 07:33N 49°28' E 000°08'0 0.0
2014-Oct-18 06:33N 49°28' E 000°08'0 0.0
2014-Oct-18 05:32N 49°28' E 000°08'0 0.0
2014-Oct-18 04:32N 49°28' E 000°08'0 0.0
2014-Oct-18 03:31N 49°28' E 000°08'0 0.0
2014-Oct-18 02:31N 49°28' E 000°08'0 0.0
2014-Oct-18 01:31N 49°28' E 000°08'0 0.0
2014-Oct-18 00:33N 49°28' E 000°08'0 0.0
2014-Oct-17 23:33N 49°28' E 000°08'0 0.0
2014-Oct-17 22:32N 49°28' E 000°08'0 0.0
2014-Oct-17 21:32N 49°28' E 000°08'0 0.0
2014-Oct-17 20:31N 49°28' E 000°08'0 0.0
2014-Oct-17 19:31N 49°28' E 000°08'0 0.0
2014-Oct-17 18:31N 49°28' E 000°08'0 0.0
2014-Oct-17 17:33N 49°28' E 000°08'0 0.0
2014-Oct-17 16:33N 49°28' E 000°08'0 0.0
2014-Oct-17 15:32N 49°28' E 000°08'0 0.0
2014-Oct-17 14:32N 49°28' E 000°08'0 0.0
2014-Oct-17 13:28N 49°28' E 000°08'0 0.0
2014-Oct-17 12:31N 49°28' E 000°08'0 0.0
2014-Oct-17 11:31N 49°28' E 000°08'0 0.0
2014-Oct-17 10:33N 49°28' E 000°08'0 0.0
2014-Oct-17 09:33N 49°28' E 000°08'0 0.0
2014-Oct-17 08:32N 49°28' E 000°08'0 0.0
2014-Oct-17 07:32N 49°28' E 000°08'0 0.0
2014-Oct-17 06:31N 49°28' E 000°08'0 0.0
2014-Oct-17 05:31N 49°28' E 000°08'0 0.0
2014-Oct-17 04:31N 49°28' E 000°08'0 0.0
2014-Oct-17 03:33N 49°28' E 000°08'0 0.0
2014-Oct-17 02:33N 49°28' E 000°08'0 0.0
2014-Oct-17 01:32N 49°28' E 000°08'0 0.0
2014-Oct-17 00:32N 49°28' E 000°08'0 0.0
2014-Oct-16 23:31N 49°28' E 000°08'0 0.0
2014-Oct-16 22:31N 49°28' E 000°08'0 0.0
2014-Oct-16 21:31N 49°28' E 000°08'0 0.0
2014-Oct-16 20:33N 49°28' E 000°08'0 0.0
2014-Oct-16 19:33N 49°28' E 000°08'0 0.0
2014-Oct-16 18:32N 49°28' E 000°08'0 0.0
2014-Oct-16 17:32N 49°28' E 000°08'0 0.0
2014-Oct-16 16:31N 49°28' E 000°08'0 0.0
2014-Oct-16 15:31N 49°28' E 000°08'0 0.0
2014-Oct-16 14:33N 49°28' E 000°08'0 0.0
2014-Oct-16 13:30N 49°28' E 000°08'0 0.0
2014-Oct-16 12:33N 49°28' E 000°08'0 0.0
2014-Oct-16 11:32N 49°28' E 000°08'0 0.0
2014-Oct-16 10:32N 49°28' E 000°08'0 0.0
2014-Oct-16 09:31N 49°28' E 000°08'0 0.0
2014-Oct-16 08:31N 49°28' E 000°08'0 0.0
2014-Oct-16 07:30N 49°28' E 000°08'0 0.0
2014-Oct-16 06:33N 49°28' E 000°08'0 0.0
2014-Oct-16 05:33N 49°28' E 000°08'0 0.0
2014-Oct-16 04:32N 49°28' E 000°08'0 0.0
2014-Oct-16 03:32N 49°28' E 000°08'0 0.0
2014-Oct-16 02:31N 49°28' E 000°08'0 0.0
2014-Oct-16 01:31N 49°28' E 000°08'0 0.0
2014-Oct-16 00:33N 49°28' E 000°08'0 0.0
2014-Oct-15 23:33N 49°28' E 000°08'0 0.0
2014-Oct-15 22:33N 49°28' E 000°08'0 0.0
2014-Oct-15 21:32N 49°28' E 000°08'0 0.0
2014-Oct-15 20:32N 49°28' E 000°08'0 0.0
2014-Oct-15 19:31N 49°28' E 000°08'0 0.0
2014-Oct-15 18:31N 49°28' E 000°08'0 0.0
2014-Oct-15 17:33N 49°28' E 000°08'0 0.0
2014-Oct-15 16:33N 49°28' E 000°08'0 0.0
2014-Oct-15 15:33N 49°28' E 000°08'0 0.0
2014-Oct-15 14:32N 49°28' E 000°08'0 0.0
2014-Oct-15 13:34N 49°28' E 000°08'4 4.0
2014-Oct-15 12:34N 49°30' E 000°02'1010.0
2014-Oct-15 11:33N 49°34' W 000°12'4 4.4
2014-Oct-15 10:34N 49°37' W 000°17'0 0.2
2014-Oct-15 09:29N 49°37' W 000°17'0 0.0
2014-Oct-15 08:22N 49°37' W 000°17'0 0.0
2014-Oct-15 07:31N 49°37' W 000°17'0 0.0
2014-Oct-15 06:31N 49°37' W 000°17'0 0.0
2014-Oct-15 05:27N 49°37' W 000°17'0 0.0
2014-Oct-15 04:33N 49°37' W 000°17'0 0.0
2014-Oct-15 03:32N 49°37' W 000°17'0 0.1
2014-Oct-15 02:32N 49°37' W 000°17'0 0.0
2014-Oct-15 01:32N 49°37' W 000°17'  

Dump ship's entire track history